Time;durP1;ratioP1;P1;durP2;ratioP2;P2;SDS_P1;SDS_P2;PMS_P1;PMS_P2;Temp;Humidity;BMP_temperature;BMP_pressure;BME280_temperature;BME280_humidity;BME280_pressure;Samples;Min_cycle;Max_cycle;Signal;HPM_P1;HPM_P2
2022/01/12 00:01:31;;;;;;;5.47;2.78;;;;;;;;;;4971467;28;20511;-74
2022/01/12 00:03:58;;;;;;;4.30;2.30;;;;;;;;;;4971068;28;20386;-74
2022/01/12 00:06:28;;;;;;;5.68;2.63;;;;;;;;;;4971417;28;20110;-74
2022/01/12 00:08:54;;;;;;;4.72;2.60;;;;;;;;;;4972404;28;20081;-74
2022/01/12 00:11:22;;;;;;;5.78;2.60;;;;;;;;;;4971045;28;20046;-75
2022/01/12 00:13:51;;;;;;;5.38;2.78;;;;;;;;;;4971592;28;20050;-73
2022/01/12 00:16:17;;;;;;;4.70;2.47;;;;;;;;;;4972556;28;20580;-74
2022/01/12 00:18:45;;;;;;;4.80;2.63;;;;;;;;;;4972514;28;20046;-73
2022/01/12 00:21:11;;;;;;;6.90;2.67;;;;;;;;;;4970730;28;20101;-73
2022/01/12 00:23:38;;;;;;;3.47;2.35;;;;;;;;;;4972062;28;20050;-74
2022/01/12 00:26:11;;;;;;;3.70;2.22;;;;;;;;;;4972104;28;20093;-74
2022/01/12 00:34:08;;;;;;;4.35;2.63;;;;;;;;;;4970889;28;20497;-74
2022/01/12 00:36:35;;;;;;;4.25;2.30;;;;;;;;;;4972229;28;20050;-74
2022/01/12 00:39:02;;;;;;;4.65;2.70;;;;;;;;;;4969472;28;20085;-73
2022/01/12 00:41:28;;;;;;;3.95;2.70;;;;;;;;;;4971451;28;20138;-74
2022/01/12 00:43:59;;;;;;;3.63;2.28;;;;;;;;;;4954619;28;20050;-73
2022/01/12 00:46:28;;;;;;;4.30;2.45;;;;;;;;;;4971509;28;20051;-73
2022/01/12 00:48:55;;;;;;;3.80;2.33;;;;;;;;;;4971637;28;20051;-74
2022/01/12 00:51:22;;;;;;;3.72;2.40;;;;;;;;;;4971631;28;20476;-73
2022/01/12 00:53:48;;;;;;;4.30;2.60;;;;;;;;;;4969949;28;20050;-73
2022/01/12 00:56:14;;;;;;;3.83;2.40;;;;;;;;;;4970153;28;20043;-73
2022/01/12 00:58:41;;;;;;;3.78;2.50;;;;;;;;;;4971922;28;20049;-73
2022/01/12 01:01:07;;;;;;;3.30;2.10;;;;;;;;;;4971455;28;20054;-73
2022/01/12 01:03:34;;;;;;;2.97;1.90;;;;;;;;;;4971430;28;20520;-73
2022/01/12 01:06:00;;;;;;;3.83;2.47;;;;;;;;;;4971133;28;20077;-73
2022/01/12 01:08:26;;;;;;;5.43;2.50;;;;;;;;;;4969661;28;20497;-73
2022/01/12 01:10:54;;;;;;;3.85;2.42;;;;;;;;;;4970134;28;20043;-76
2022/01/12 01:13:26;;;;;;;4.28;2.60;;;;;;;;;;4970068;28;20089;-76
2022/01/12 01:16:10;;;;;;;3.20;2.10;;;;;;;;;;4970876;28;20129;-75
2022/01/12 01:26:52;;;;;;;4.07;2.70;;;;;;;;;;4970151;28;20054;-76
2022/01/12 01:29:18;;;;;;;3.60;2.40;;;;;;;;;;4969304;28;20054;-76
2022/01/12 01:31:45;;;;;;;4.07;2.67;;;;;;;;;;4970998;28;20137;-76
2022/01/12 01:34:13;;;;;;;6.05;2.45;;;;;;;;;;4969691;28;20082;-76
2022/01/12 01:36:41;;;;;;;4.07;2.40;;;;;;;;;;4953973;28;20493;-76
2022/01/12 01:39:08;;;;;;;3.60;2.60;;;;;;;;;;4969503;28;20138;-76
2022/01/12 01:41:34;;;;;;;3.53;2.33;;;;;;;;;;4970442;28;20073;-76
2022/01/12 01:54:47;;;;;;;4.15;2.55;;;;;;;;;;4968931;28;20058;-77
2022/01/12 01:57:14;;;;;;;3.83;2.60;;;;;;;;;;4970539;28;20170;-76
2022/01/12 01:59:40;;;;;;;3.60;2.30;;;;;;;;;;4970705;28;20039;-76
2022/01/12 02:02:06;;;;;;;4.78;2.33;;;;;;;;;;4953416;28;20039;-76
2022/01/12 02:04:32;;;;;;;4.18;2.80;;;;;;;;;;4970886;28;20051;-76
2022/01/12 02:06:59;;;;;;;3.80;2.40;;;;;;;;;;4970153;28;20070;-76
2022/01/12 02:09:26;;;;;;;3.80;2.60;;;;;;;;;;4970542;28;20421;-76
2022/01/12 02:11:52;;;;;;;5.15;2.80;;;;;;;;;;4969502;28;20087;-77
2022/01/12 02:14:19;;;;;;;6.10;2.42;;;;;;;;;;4970372;28;20084;-77
2022/01/12 02:16:56;;;;;;;3.95;2.65;;;;;;;;;;4952518;28;20064;-77
2022/01/12 02:19:48;;;;;;;3.70;2.50;;;;;;;;;;4970363;28;20086;-79
2022/01/12 02:36:07;;;;;;;7.05;2.95;;;;;;;;;;4969748;28;20073;-75
2022/01/12 02:41:18;;;;;;;4.32;2.70;;;;;;;;;;4969381;28;20479;-76
2022/01/12 02:54:44;;;;;;;4.45;2.58;;;;;;;;;;4969544;28;20054;-75
2022/01/12 02:57:10;;;;;;;4.43;2.42;;;;;;;;;;4969165;28;20057;-75
2022/01/12 02:59:36;;;;;;;3.50;2.33;;;;;;;;;;4969783;28;20476;-75
2022/01/12 03:05:34;;;;;;;3.95;2.50;;;;;;;;;;4972750;28;20257;-75
2022/01/12 03:07:37;;;;;;;5.03;2.63;;;;;;;;;;4969026;28;20570;-75
2022/01/12 03:10:04;;;;;;;3.60;2.53;;;;;;;;;;4972796;28;20062;-74
2022/01/12 03:12:31;;;;;;;3.42;2.13;;;;;;;;;;4973365;28;20552;-75
2022/01/12 03:14:57;;;;;;;3.38;2.33;;;;;;;;;;4972507;28;20110;-75
2022/01/12 03:17:23;;;;;;;3.55;2.30;;;;;;;;;;4972681;28;20089;-75
2022/01/12 03:19:49;;;;;;;3.25;2.47;;;;;;;;;;4971853;28;20050;-74
2022/01/12 03:22:15;;;;;;;3.80;2.42;;;;;;;;;;4973011;28;20054;-75
2022/01/12 03:24:42;;;;;;;3.50;2.22;;;;;;;;;;4972831;28;20049;-75
2022/01/12 03:27:13;;;;;;;4.60;2.45;;;;;;;;;;4970960;28;20051;-76
2022/01/12 03:29:42;;;;;;;4.68;2.75;;;;;;;;;;4973074;28;20405;-76
2022/01/12 03:32:10;;;;;;;3.47;2.75;;;;;;;;;;4972781;28;20425;-77
2022/01/12 03:34:37;;;;;;;5.70;2.67;;;;;;;;;;4973035;28;20055;-77
2022/01/12 03:40:02;;;;;;;5.50;2.67;;;;;;;;;;4960423;28;20141;-77
2022/01/12 03:42:28;;;;;;;3.67;2.28;;;;;;;;;;4972557;28;20398;-77
2022/01/12 03:44:54;;;;;;;3.55;2.53;;;;;;;;;;4972676;28;20077;-77
2022/01/12 03:47:20;;;;;;;4.50;2.40;;;;;;;;;;4972054;28;20186;-77
2022/01/12 03:49:46;;;;;;;3.33;2.33;;;;;;;;;;4972624;28;20537;-77
2022/01/12 03:52:12;;;;;;;5.32;3.13;;;;;;;;;;4972139;28;20038;-76
2022/01/12 03:54:39;;;;;;;4.88;2.50;;;;;;;;;;4971661;28;20049;-76
2022/01/12 03:57:05;;;;;;;3.95;2.60;;;;;;;;;;4971982;28;20104;-77
2022/01/12 03:59:32;;;;;;;4.70;2.95;;;;;;;;;;4972244;28;20046;-76
2022/01/12 04:01:58;;;;;;;4.43;2.75;;;;;;;;;;4972299;28;20078;-78
2022/01/12 04:04:32;;;;;;;3.90;2.70;;;;;;;;;;4972388;28;20054;-76
2022/01/12 04:09:44;;;;;;;3.85;2.25;;;;;;;;;;4971602;28;20053;-76
2022/01/12 04:12:10;;;;;;;3.50;2.25;;;;;;;;;;4972101;28;20110;-76
2022/01/12 04:14:36;;;;;;;4.10;2.40;;;;;;;;;;4970361;28;20054;-76
2022/01/12 04:17:02;;;;;;;3.55;2.35;;;;;;;;;;4971986;28;20418;-76
2022/01/12 04:19:29;;;;;;;3.75;2.53;;;;;;;;;;4971532;28;20508;-76
2022/01/12 04:21:55;;;;;;;2.95;2.10;;;;;;;;;;4971623;28;20051;-76
2022/01/12 04:24:21;;;;;;;3.80;2.58;;;;;;;;;;4971596;28;20097;-76
2022/01/12 04:26:47;;;;;;;4.45;2.70;;;;;;;;;;4971735;28;20061;-76
2022/01/12 04:29:14;;;;;;;4.35;2.47;;;;;;;;;;4971612;28;20046;-76
2022/01/12 04:31:40;;;;;;;3.50;2.40;;;;;;;;;;4971445;28;20122;-77
2022/01/12 04:34:08;;;;;;;4.03;2.58;;;;;;;;;;4970321;28;20062;-76
2022/01/12 04:36:34;;;;;;;4.50;2.53;;;;;;;;;;4971522;28;20051;-75
2022/01/12 04:39:00;;;;;;;3.38;2.25;;;;;;;;;;4971492;28;20059;-78
2022/01/12 04:41:26;;;;;;;4.50;2.53;;;;;;;;;;4971163;28;20051;-78
2022/01/12 04:43:53;;;;;;;4.18;2.45;;;;;;;;;;4970205;28;20046;-78
2022/01/12 04:46:28;;;;;;;3.05;2.20;;;;;;;;;;4971321;28;20619;-79
2022/01/12 04:49:19;;;;;;;3.40;2.33;;;;;;;;;;4971412;28;20178;-79
2022/01/12 04:51:43;;;;;;;3.17;2.03;;;;;;;;;;4970568;28;20058;-79
2022/01/12 04:54:09;;;;;;;5.10;2.50;;;;;;;;;;4969571;28;20047;-78
2022/01/12 04:56:35;;;;;;;3.85;2.30;;;;;;;;;;4971106;28;20046;-79
2022/01/12 04:59:02;;;;;;;3.53;2.28;;;;;;;;;;4970841;28;20210;-79
2022/01/12 05:01:35;;;;;;;5.18;2.72;;;;;;;;;;4970797;28;20055;-78
2022/01/12 05:14:24;;;;;;;3.97;2.40;;;;;;;;;;4970048;28;20125;-78
2022/01/12 05:16:50;;;;;;;2.92;2.10;;;;;;;;;;4970786;28;20109;-78
2022/01/12 05:19:16;;;;;;;3.50;2.20;;;;;;;;;;4970720;28;20050;-78
2022/01/12 05:21:42;;;;;;;3.85;2.20;;;;;;;;;;4953018;28;20046;-77
2022/01/12 05:24:10;;;;;;;3.53;2.30;;;;;;;;;;4969521;28;20047;-81
2022/01/12 05:26:36;;;;;;;6.45;2.33;;;;;;;;;;4970201;28;20133;-78
2022/01/12 05:29:03;;;;;;;4.80;2.38;;;;;;;;;;4970079;28;20078;-76
2022/01/12 05:31:29;;;;;;;4.43;2.03;;;;;;;;;;4970623;28;20042;-74
2022/01/12 05:33:58;;;;;;;5.68;2.55;;;;;;;;;;4970422;28;20050;-74
2022/01/12 05:36:25;;;;;;;8.88;2.58;;;;;;;;;;4970219;28;20134;-74
2022/01/12 05:38:51;;;;;;;6.35;2.65;;;;;;;;;;4968754;28;20134;-74
2022/01/12 05:41:18;;;;;;;7.47;2.47;;;;;;;;;;4969057;28;20051;-75
2022/01/12 05:43:46;;;;;;;3.53;2.35;;;;;;;;;;4970412;28;20050;-75
2022/01/12 05:46:14;;;;;;;3.47;1.95;;;;;;;;;;4970073;28;20058;-75
2022/01/12 05:51:26;;;;;;;4.63;2.47;;;;;;;;;;4969277;28;20077;-74
2022/01/12 05:53:53;;;;;;;4.25;1.92;;;;;;;;;;4970683;28;20133;-75
2022/01/12 05:56:19;;;;;;;5.53;2.28;;;;;;;;;;4970181;28;20509;-75
2022/01/12 05:58:45;;;;;;;4.80;2.20;;;;;;;;;;4968770;28;20097;-75
2022/01/12 06:01:11;;;;;;;4.60;2.30;;;;;;;;;;4969467;28;20113;-74
2022/01/12 06:03:37;;;;;;;2.92;2.20;;;;;;;;;;4970120;28;20054;-75
2022/01/12 06:06:03;;;;;;;5.07;2.45;;;;;;;;;;4968840;28;20054;-74
2022/01/12 06:08:29;;;;;;;5.38;2.63;;;;;;;;;;4970507;28;20413;-76
2022/01/12 06:10:55;;;;;;;5.35;2.10;;;;;;;;;;4970178;28;20113;-77
2022/01/12 06:13:21;;;;;;;3.33;1.92;;;;;;;;;;4969702;28;20047;-79
2022/01/12 06:15:47;;;;;;;4.45;2.10;;;;;;;;;;4968426;28;20137;-77
2022/01/12 06:18:13;;;;;;;3.30;2.10;;;;;;;;;;4968552;28;20374;-79
2022/01/12 06:20:39;;;;;;;4.82;2.15;;;;;;;;;;4968584;28;20058;-75
2022/01/12 06:23:05;;;;;;;4.07;2.13;;;;;;;;;;4970026;28;20066;-77
2022/01/12 06:25:31;;;;;;;3.65;2.20;;;;;;;;;;4986306;28;20065;-76
2022/01/12 06:28:19;;;;;;;6.90;2.53;;;;;;;;;;4988985;28;20050;-76
2022/01/12 06:33:28;;;;;;;3.20;2.08;;;;;;;;;;4969480;28;20173;-76
2022/01/12 06:35:54;;;;;;;3.33;1.90;;;;;;;;;;4969834;28;20141;-77
2022/01/12 06:38:21;;;;;;;3.22;2.10;;;;;;;;;;4973704;28;20050;-77
2022/01/12 06:40:49;;;;;;;2.45;1.85;;;;;;;;;;4973605;28;20043;-76
2022/01/12 06:43:15;;;;;;;3.10;1.95;;;;;;;;;;4973352;28;20464;-76
2022/01/12 06:45:41;;;;;;;3.35;1.80;;;;;;;;;;4973310;28;20073;-76
2022/01/12 06:48:07;;;;;;;3.45;2.03;;;;;;;;;;4973120;28;20489;-77
2022/01/12 06:50:33;;;;;;;3.97;2.00;;;;;;;;;;4973664;28;20097;-76
2022/01/12 06:52:59;;;;;;;2.55;1.83;;;;;;;;;;4973632;28;20049;-77
2022/01/12 06:55:25;;;;;;;4.47;2.22;;;;;;;;;;4972058;28;20142;-77
2022/01/12 06:57:51;;;;;;;5.22;1.80;;;;;;;;;;4972992;28;20054;-76
2022/01/12 07:00:18;;;;;;;4.07;1.98;;;;;;;;;;4956239;28;20409;-76
2022/01/12 07:02:44;;;;;;;2.95;2.00;;;;;;;;;;4973261;28;20105;-77
2022/01/12 07:05:10;;;;;;;4.10;1.92;;;;;;;;;;4972186;28;20046;-77
2022/01/12 07:07:36;;;;;;;2.72;1.80;;;;;;;;;;4973559;28;20464;-77
2022/01/12 07:10:03;;;;;;;2.83;1.85;;;;;;;;;;4971840;28;20090;-77
2022/01/12 07:12:29;;;;;;;3.17;1.90;;;;;;;;;;4972927;28;20050;-74
2022/01/12 07:14:55;;;;;;;2.80;1.67;;;;;;;;;;4973048;28;20097;-74
2022/01/12 07:17:21;;;;;;;4.15;2.03;;;;;;;;;;4972793;28;20082;-75
2022/01/12 07:19:47;;;;;;;3.30;1.85;;;;;;;;;;4972195;28;20047;-75
2022/01/12 07:22:13;;;;;;;2.55;1.63;;;;;;;;;;4972977;28;20066;-76
2022/01/12 07:24:39;;;;;;;3.40;1.83;;;;;;;;;;4972733;28;20051;-74
2022/01/12 07:27:05;;;;;;;3.90;2.10;;;;;;;;;;4972414;28;20043;-75
2022/01/12 07:29:31;;;;;;;2.05;1.60;;;;;;;;;;4972986;28;20125;-75
2022/01/12 07:31:57;;;;;;;3.63;2.20;;;;;;;;;;4972749;28;20047;-74
2022/01/12 07:34:23;;;;;;;3.47;1.90;;;;;;;;;;4971964;28;20047;-75
2022/01/12 07:36:49;;;;;;;2.95;1.60;;;;;;;;;;4971367;28;20043;-74
2022/01/12 07:39:15;;;;;;;3.40;1.95;;;;;;;;;;4972502;28;20090;-75
2022/01/12 07:41:42;;;;;;;3.40;1.75;;;;;;;;;;4972538;28;20038;-76
2022/01/12 07:44:08;;;;;;;4.03;1.80;;;;;;;;;;4972263;28;20100;-75
2022/01/12 07:46:34;;;;;;;3.72;1.60;;;;;;;;;;4972192;28;20058;-75
2022/01/12 07:49:00;;;;;;;2.35;1.52;;;;;;;;;;4971519;28;20047;-75
2022/01/12 07:51:26;;;;;;;3.70;1.70;;;;;;;;;;4972506;28;20085;-75
2022/01/12 07:53:52;;;;;;;2.50;1.67;;;;;;;;;;4970831;28;20438;-74
2022/01/12 07:56:18;;;;;;;3.85;1.60;;;;;;;;;;4972168;28;20046;-75
2022/01/12 07:58:44;;;;;;;2.67;1.92;;;;;;;;;;4970803;28;20117;-75
2022/01/12 08:01:12;;;;;;;2.72;1.63;;;;;;;;;;4972219;28;20055;-84
2022/01/12 08:03:39;;;;;;;2.53;1.60;;;;;;;;;;4955403;28;20058;-75
2022/01/12 08:06:05;;;;;;;3.33;1.58;;;;;;;;;;4972411;28;20050;-79
2022/01/12 08:08:33;;;;;;;2.50;1.52;;;;;;;;;;4971589;28;20051;-83
2022/01/12 08:10:59;;;;;;;3.45;1.73;;;;;;;;;;4972204;28;20062;-79
2022/01/12 08:13:25;;;;;;;19.60;2.28;;;;;;;;;;4972667;28;20449;-80
2022/01/12 08:15:51;;;;;;;2.75;1.55;;;;;;;;;;4972382;28;20066;-82
2022/01/12 08:18:17;;;;;;;6.35;1.63;;;;;;;;;;4971216;28;20038;-81
2022/01/12 08:20:43;;;;;;;2.97;1.15;;;;;;;;;;4972422;28;20074;-81
2022/01/12 08:23:09;;;;;;;3.65;1.50;;;;;;;;;;4971139;28;20046;-84
2022/01/12 08:25:38;;;;;;;2.42;1.52;;;;;;;;;;4972590;28;20051;-83
2022/01/12 08:28:05;;;;;;;2.30;1.30;;;;;;;;;;4954855;28;20562;-80
2022/01/12 08:30:33;;;;;;;3.15;1.35;;;;;;;;;;4954803;28;20508;-83
2022/01/12 08:33:00;;;;;;;2.33;1.15;;;;;;;;;;4972397;28;20051;-82
2022/01/12 08:35:27;;;;;;;4.60;1.35;;;;;;;;;;4973547;28;20189;-83
2022/01/12 08:37:53;;;;;;;11.65;2.10;;;;;;;;;;4972298;28;20058;-77
2022/01/12 08:40:20;;;;;;;12.02;2.50;;;;;;;;;;4970145;28;20055;-76
2022/01/12 08:42:47;;;;;;;11.30;3.30;;;;;;;;;;4955744;28;20707;-77
2022/01/12 08:45:13;;;;;;;4.15;2.20;;;;;;;;;;4973052;28;20125;-75
2022/01/12 08:47:40;;;;;;;5.30;2.47;;;;;;;;;;4971536;28;20051;-76
2022/01/12 08:50:07;;;;;;;4.28;1.90;;;;;;;;;;4969905;28;20081;-75
2022/01/12 08:52:33;;;;;;;8.20;2.97;;;;;;;;;;4971513;28;20038;-75
2022/01/12 08:55:00;;;;;;;10.93;2.45;;;;;;;;;;4971499;28;20428;-78
2022/01/12 08:57:29;;;;;;;10.73;2.20;;;;;;;;;;4969741;28;20051;-78
2022/01/12 08:59:55;;;;;;;;;;;;;;;;;;4969727;28;20062;-75
2022/01/12 09:02:21;;;;;;;6.25;3.28;;;;;;;;;;4971239;28;19922;-78
2022/01/12 09:04:47;;;;;;;13.73;4.13;;;;;;;;;;4970649;28;20038;-77
2022/01/12 09:07:13;;;;;;;7.95;3.70;;;;;;;;;;4975423;28;20051;-76
2022/01/12 09:09:39;;;;;;;20.95;4.30;;;;;;;;;;4959362;28;20057;-77
2022/01/12 09:12:06;;;;;;;33.28;5.18;;;;;;;;;;4970488;28;20121;-79
2022/01/12 09:14:32;;;;;;;7.90;3.83;;;;;;;;;;4971293;28;20413;-80
2022/01/12 09:17:02;;;;;;;12.75;4.03;;;;;;;;;;4970012;28;20058;-79
2022/01/12 09:19:28;;;;;;;48.42;5.25;;;;;;;;;;4971001;28;20058;-77
2022/01/12 09:21:56;;;;;;;16.08;5.30;;;;;;;;;;4971026;28;20126;-78
2022/01/12 09:24:22;;;;;;;15.32;7.40;;;;;;;;;;4970728;28;20066;-77
2022/01/12 09:26:49;;;;;;;34.67;6.70;;;;;;;;;;4971497;28;20058;-79
2022/01/12 09:29:15;;;;;;;11.32;5.22;;;;;;;;;;4970853;28;20047;-72
2022/01/12 09:31:41;;;;;;;21.73;4.72;;;;;;;;;;4967778;28;20093;-76
2022/01/12 09:34:07;;;;;;;15.57;6.97;;;;;;;;;;4969457;28;20060;-79
2022/01/12 09:36:33;;;;;;;15.10;6.82;;;;;;;;;;4970496;28;20535;-77
2022/01/12 09:39:00;;;;;;;14.75;7.38;;;;;;;;;;4969842;28;20046;-76
2022/01/12 09:41:27;;;;;;;12.73;6.90;;;;;;;;;;4970362;28;20093;-74
2022/01/12 09:43:54;;;;;;;15.65;7.47;;;;;;;;;;4970529;28;20046;-76
2022/01/12 09:46:23;;;;;;;11.90;6.30;;;;;;;;;;4970007;28;20070;-78
2022/01/12 09:48:49;;;;;;;16.77;7.13;;;;;;;;;;4970470;28;20398;-82
2022/01/12 09:51:15;;;;;;;12.68;6.40;;;;;;;;;;4953441;28;20291;-76
2022/01/12 09:53:41;;;;;;;12.80;6.15;;;;;;;;;;4969094;28;20078;-78
2022/01/12 09:56:16;;;;;;;11.38;5.72;;;;;;;;;;4969762;28;20081;-77
2022/01/12 09:58:42;;;;;;;15.02;6.28;;;;;;;;;;4969179;28;20054;-78
2022/01/12 10:01:09;;;;;;;14.32;6.00;;;;;;;;;;4976643;28;20045;-76
2022/01/12 10:03:35;;;;;;;16.15;5.38;;;;;;;;;;4973176;28;20399;-75
2022/01/12 10:06:11;;;;;;;13.57;6.60;;;;;;;;;;4970045;28;20038;-76
2022/01/12 10:08:37;;;;;;;9.77;5.60;;;;;;;;;;4972984;28;20096;-75
2022/01/12 10:11:08;;;;;;;16.63;6.22;;;;;;;;;;4988163;28;20046;-73
2022/01/12 10:13:36;;;;;;;10.63;5.68;;;;;;;;;;4989784;28;20039;-77
2022/01/12 10:16:15;;;;;;;11.50;5.80;;;;;;;;;;4989519;28;20050;-78
2022/01/12 10:18:52;;;;;;;10.98;5.53;;;;;;;;;;4972861;28;20051;-75
2022/01/12 10:21:40;;;;;;;11.32;5.05;;;;;;;;;;4969830;28;20509;-79
2022/01/12 10:24:08;;;;;;;10.75;5.10;;;;;;;;;;4970121;28;20390;-80
2022/01/12 10:26:37;;;;;;;11.17;5.33;;;;;;;;;;4968815;28;20042;-79
2022/01/12 10:29:07;;;;;;;9.50;5.07;;;;;;;;;;4969620;28;20066;-79
2022/01/12 10:31:52;;;;;;;10.25;5.28;;;;;;;;;;4969890;28;20121;-75
2022/01/12 10:34:20;;;;;;;7.72;4.90;;;;;;;;;;4968739;28;20042;-78
2022/01/12 10:36:47;;;;;;;8.65;4.95;;;;;;;;;;4969316;28;20043;-78
2022/01/12 10:39:14;;;;;;;10.27;4.60;;;;;;;;;;4970002;28;20509;-77
2022/01/12 10:41:53;;;;;;;9.32;5.05;;;;;;;;;;4973472;28;20077;-78
2022/01/12 10:44:19;;;;;;;;;;;;;;;;;;4968515;28;20416;-79
2022/01/12 10:46:45;;;;;;;7.80;4.20;;;;;;;;;;4968033;28;20388;-78
2022/01/12 10:49:17;;;;;;;7.22;4.22;;;;;;;;;;4969904;28;20058;-78
2022/01/12 10:51:44;;;;;;;8.25;4.50;;;;;;;;;;4968384;28;20062;-78
2022/01/12 10:54:10;;;;;;;8.90;4.57;;;;;;;;;;4969509;28;20047;-78
2022/01/12 10:56:36;;;;;;;6.60;4.15;;;;;;;;;;4969878;28;20078;-78
2022/01/12 10:59:02;;;;;;;8.68;4.68;;;;;;;;;;4967693;28;20584;-79
2022/01/12 11:01:29;;;;;;;9.98;4.60;;;;;;;;;;4952248;28;20074;-79
2022/01/12 11:03:55;;;;;;;6.63;4.18;;;;;;;;;;4969829;28;20050;-78
2022/01/12 11:06:23;;;;;;;8.35;4.00;;;;;;;;;;4969075;28;20043;-79
2022/01/12 11:08:50;;;;;;;9.20;4.13;;;;;;;;;;4969814;28;20046;-78
2022/01/12 11:11:17;;;;;;;8.07;4.05;;;;;;;;;;4968259;28;20101;-78
2022/01/12 11:13:45;;;;;;;9.05;4.20;;;;;;;;;;4969461;28;20053;-78
2022/01/12 11:16:11;;;;;;;9.07;4.47;;;;;;;;;;4969049;28;20043;-79
2022/01/12 11:18:38;;;;;;;6.82;3.65;;;;;;;;;;4969694;28;20039;-78
2022/01/12 11:21:07;;;;;;;7.55;3.88;;;;;;;;;;4968215;28;20516;-79
2022/01/12 11:23:38;;;;;;;10.05;4.32;;;;;;;;;;4970990;28;20039;-79
2022/01/12 11:26:15;;;;;;;5.95;3.65;;;;;;;;;;4971561;28;20444;-76
2022/01/12 11:28:41;;;;;;;8.15;3.80;;;;;;;;;;4972491;28;20464;-79
2022/01/12 11:31:08;;;;;;;7.32;3.78;;;;;;;;;;4971538;28;20050;-78
2022/01/12 11:33:34;;;;;;;7.75;3.35;;;;;;;;;;4972867;28;20436;-78
2022/01/12 11:36:02;;;;;;;5.57;3.17;;;;;;;;;;4951096;28;20047;-78
2022/01/12 11:38:30;;;;;;;6.97;3.20;;;;;;;;;;4952397;28;20058;-79
2022/01/12 11:41:10;;;;;;;6.03;3.30;;;;;;;;;;4953415;28;20047;-74
2022/01/12 11:43:53;;;;;;;10.10;3.75;;;;;;;;;;4953082;28;20055;-74
2022/01/12 11:46:26;;;;;;;7.47;3.47;;;;;;;;;;4971171;28;20588;-73
2022/01/12 11:48:54;;;;;;;6.47;3.00;;;;;;;;;;4970741;28;20093;-73
2022/01/12 11:51:21;;;;;;;5.40;2.97;;;;;;;;;;4970788;28;20141;-76
2022/01/12 11:53:47;;;;;;;6.28;3.20;;;;;;;;;;4973069;28;20485;-74
2022/01/12 11:56:14;;;;;;;7.93;3.00;;;;;;;;;;4971433;28;20417;-74
2022/01/12 11:58:54;;;;;;;6.13;3.17;;;;;;;;;;4971997;28;20432;-75
2022/01/12 12:01:22;;;;;;;7.10;3.08;;;;;;;;;;4951301;28;20109;-76
2022/01/12 12:03:58;;;;;;;5.82;3.10;;;;;;;;;;4953016;28;20047;-75
2022/01/12 12:06:24;;;;;;;7.28;3.20;;;;;;;;;;4953211;28;20058;-74
2022/01/12 12:09:10;;;;;;;6.35;2.97;;;;;;;;;;4963953;28;20609;-76
2022/01/12 12:11:36;;;;;;;7.70;3.30;;;;;;;;;;4971168;28;20055;-76
2022/01/12 12:14:06;;;;;;;8.98;3.33;;;;;;;;;;4971612;28;20580;-76
2022/01/12 12:16:33;;;;;;;15.32;3.20;;;;;;;;;;4967756;28;20130;-75
2022/01/12 12:19:00;;;;;;;18.08;4.28;;;;;;;;;;4971871;28;20077;-74
2022/01/12 12:21:28;;;;;;;9.43;3.60;;;;;;;;;;4981151;28;20129;-75
2022/01/12 12:23:54;;;;;;;7.07;3.10;;;;;;;;;;4988150;28;20062;-74
2022/01/12 12:26:21;;;;;;;10.65;3.42;;;;;;;;;;4970317;28;20061;-75
2022/01/12 12:28:54;;;;;;;7.50;3.13;;;;;;;;;;4972039;28;20429;-75
2022/01/12 12:31:25;;;;;;;11.38;3.25;;;;;;;;;;4971745;28;20047;-74
2022/01/12 12:34:08;;;;;;;6.38;3.17;;;;;;;;;;4971573;28;20051;-74
2022/01/12 12:36:34;;;;;;;7.75;2.88;;;;;;;;;;4971181;28;20567;-74
2022/01/12 12:39:05;;;;;;;8.10;3.30;;;;;;;;;;4969938;28;20098;-75
2022/01/12 12:41:38;;;;;;;6.07;3.15;;;;;;;;;;4969704;28;20047;-75
2022/01/12 12:44:04;;;;;;;10.30;3.78;;;;;;;;;;4971135;28;20519;-75
2022/01/12 12:46:30;;;;;;;5.20;2.97;;;;;;;;;;4971294;28;20062;-75
2022/01/12 12:48:56;;;;;;;11.50;2.95;;;;;;;;;;4971308;28;20146;-77
2022/01/12 12:51:23;;;;;;;6.45;3.30;;;;;;;;;;4969972;28;20058;-75
2022/01/12 12:53:54;;;;;;;5.72;2.92;;;;;;;;;;4971552;28;20428;-76
2022/01/12 12:56:23;;;;;;;7.80;3.83;;;;;;;;;;4971746;28;20086;-75
2022/01/12 12:58:50;;;;;;;6.07;3.17;;;;;;;;;;4970959;28;20043;-75
2022/01/12 13:01:16;;;;;;;6.32;3.17;;;;;;;;;;4971438;28;20047;-74
2022/01/12 13:03:54;;;;;;;6.43;3.13;;;;;;;;;;4970898;28;20065;-74
2022/01/12 13:06:27;;;;;;;8.13;3.17;;;;;;;;;;4970922;28;20090;-74
2022/01/12 13:09:02;;;;;;;6.63;3.45;;;;;;;;;;4970698;28;20134;-73
2022/01/12 13:11:29;;;;;;;6.18;3.30;;;;;;;;;;4971116;28;20055;-73
2022/01/12 13:13:59;;;;;;;8.77;3.92;;;;;;;;;;4969279;28;20047;-73
2022/01/12 13:16:26;;;;;;;7.07;3.45;;;;;;;;;;4969735;28;20051;-74
2022/01/12 13:19:03;;;;;;;8.15;3.88;;;;;;;;;;4970862;28;20046;-73
2022/01/12 13:21:29;;;;;;;10.15;3.97;;;;;;;;;;4970880;28;20047;-73
2022/01/12 13:23:57;;;;;;;9.88;3.95;;;;;;;;;;4970324;28;20494;-73
2022/01/12 13:26:25;;;;;;;8.10;3.92;;;;;;;;;;4969824;28;20057;-75
2022/01/12 13:28:51;;;;;;;6.40;3.35;;;;;;;;;;4969549;28;20445;-74
2022/01/12 13:31:19;;;;;;;8.65;3.95;;;;;;;;;;4970299;28;20064;-74
2022/01/12 13:33:47;;;;;;;7.40;3.88;;;;;;;;;;4970460;28;20615;-74
2022/01/12 13:36:17;;;;;;;6.03;3.70;;;;;;;;;;4970409;28;20595;-72
2022/01/12 13:38:44;;;;;;;7.45;4.10;;;;;;;;;;4970251;28;20073;-72
2022/01/12 13:41:13;;;;;;;7.05;3.50;;;;;;;;;;4970331;28;20050;-73
2022/01/12 13:43:41;;;;;;;6.93;3.28;;;;;;;;;;4970554;28;20499;-72
2022/01/12 13:46:13;;;;;;;8.77;3.40;;;;;;;;;;4969776;28;20067;-73
2022/01/12 13:48:43;;;;;;;6.85;3.50;;;;;;;;;;4970128;28;20326;-73
2022/01/12 13:51:09;;;;;;;9.10;4.07;;;;;;;;;;4968625;28;20505;-75
2022/01/12 13:53:37;;;;;;;8.48;4.13;;;;;;;;;;4969156;28;20433;-75
2022/01/12 13:56:03;;;;;;;11.48;4.10;;;;;;;;;;4968857;28;20051;-74
2022/01/12 13:58:30;;;;;;;8.00;3.67;;;;;;;;;;4968670;28;20053;-74
2022/01/12 14:01:13;;;;;;;7.13;4.05;;;;;;;;;;4970127;28;20512;-76
2022/01/12 14:03:55;;;;;;;7.80;4.13;;;;;;;;;;4969732;28;20415;-74
2022/01/12 14:06:26;;;;;;;8.05;3.97;;;;;;;;;;4970202;28;20051;-74
2022/01/12 14:08:56;;;;;;;10.75;4.07;;;;;;;;;;4968896;28;20050;-74
2022/01/12 14:11:23;;;;;;;8.13;3.22;;;;;;;;;;4970150;28;20129;-74
2022/01/12 14:13:49;;;;;;;6.95;3.92;;;;;;;;;;4969269;28;20051;-74
2022/01/12 14:16:16;;;;;;;8.18;3.88;;;;;;;;;;4969963;28;20117;-73
2022/01/12 14:18:42;;;;;;;8.57;4.00;;;;;;;;;;4970255;28;20043;-74
2022/01/12 14:21:18;;;;;;;8.48;3.92;;;;;;;;;;4969874;28;20051;-75
2022/01/12 14:23:44;;;;;;;16.63;4.70;;;;;;;;;;4968399;28;20548;-73
2022/01/12 14:26:23;;;;;;;10.98;3.83;;;;;;;;;;4970174;28;20039;-74
2022/01/12 14:28:49;;;;;;;7.20;3.63;;;;;;;;;;4970152;28;20477;-73
2022/01/12 14:31:15;;;;;;;7.18;3.63;;;;;;;;;;4969762;28;20086;-73
2022/01/12 14:33:41;;;;;;;7.00;3.17;;;;;;;;;;4969288;28;20531;-74
2022/01/12 14:36:07;;;;;;;12.23;3.78;;;;;;;;;;4968779;28;20481;-73
2022/01/12 14:38:33;;;;;;;9.38;4.00;;;;;;;;;;4969644;28;20043;-77
2022/01/12 14:40:59;;;;;;;12.80;3.33;;;;;;;;;;4968604;28;20134;-75
2022/01/12 14:43:29;;;;;;;10.82;3.40;;;;;;;;;;4969434;28;20394;-74
2022/01/12 14:45:56;;;;;;;16.45;3.90;;;;;;;;;;4954472;28;20054;-76
2022/01/12 14:48:25;;;;;;;9.07;3.50;;;;;;;;;;4970072;28;20138;-75
2022/01/12 14:50:51;;;;;;;6.88;3.63;;;;;;;;;;4967797;28;20049;-78
2022/01/12 14:53:21;;;;;;;7.93;3.70;;;;;;;;;;4964272;28;20557;-76
2022/01/12 14:55:48;;;;;;;7.80;3.97;;;;;;;;;;4967969;28;20125;-77
2022/01/12 14:58:14;;;;;;;6.68;3.08;;;;;;;;;;4968258;28;20090;-74
2022/01/12 15:00:40;;;;;;;6.95;2.85;;;;;;;;;;4971495;28;20505;-75
2022/01/12 15:03:09;;;;;;;7.30;3.33;;;;;;;;;;4972134;28;20046;-73
2022/01/12 15:05:35;;;;;;;6.15;2.97;;;;;;;;;;4972364;28;20047;-76
2022/01/12 15:08:02;;;;;;;5.75;3.20;;;;;;;;;;4953661;28;20047;-77
2022/01/12 15:10:28;;;;;;;6.00;3.15;;;;;;;;;;4970368;28;20524;-77
2022/01/12 15:12:56;;;;;;;5.75;2.83;;;;;;;;;;4971200;28;20404;-77
2022/01/12 15:15:22;;;;;;;6.22;2.75;;;;;;;;;;4971267;28;20055;-75
2022/01/12 15:17:48;;;;;;;6.68;3.00;;;;;;;;;;4970768;28;20133;-76
2022/01/12 15:20:15;;;;;;;6.10;2.85;;;;;;;;;;4971032;28;20604;-75
2022/01/12 15:22:46;;;;;;;6.70;3.17;;;;;;;;;;4970024;28;20504;-76
2022/01/12 15:25:13;;;;;;;4.60;2.30;;;;;;;;;;4954235;28;20222;-75
2022/01/12 15:27:39;;;;;;;6.70;2.78;;;;;;;;;;4971288;28;20133;-78
2022/01/12 15:30:07;;;;;;;8.32;2.92;;;;;;;;;;4970689;28;20382;-78
2022/01/12 15:32:33;;;;;;;5.50;2.67;;;;;;;;;;4969461;28;20142;-75
2022/01/12 15:34:59;;;;;;;5.55;2.67;;;;;;;;;;4970848;28;20050;-75
2022/01/12 15:37:26;;;;;;;6.53;2.90;;;;;;;;;;4970657;28;20047;-75
2022/01/12 15:39:56;;;;;;;9.85;3.08;;;;;;;;;;4969310;28;20047;-75
2022/01/12 15:42:23;;;;;;;8.63;3.03;;;;;;;;;;4969098;28;20054;-77
2022/01/12 15:44:49;;;;;;;6.60;2.90;;;;;;;;;;4959946;28;20047;-76
2022/01/12 15:47:15;;;;;;;5.80;2.67;;;;;;;;;;4970334;28;20524;-77
2022/01/12 15:49:42;;;;;;;4.93;2.85;;;;;;;;;;4970909;28;20378;-76
2022/01/12 15:52:08;;;;;;;6.45;3.13;;;;;;;;;;4970683;28;20039;-76
2022/01/12 15:54:35;;;;;;;6.40;2.85;;;;;;;;;;4970093;28;20359;-77
2022/01/12 15:57:01;;;;;;;7.13;2.63;;;;;;;;;;4970278;28;21341;-77
2022/01/12 15:59:27;;;;;;;5.38;2.60;;;;;;;;;;4968358;28;20039;-77
2022/01/12 16:01:53;;;;;;;5.85;2.75;;;;;;;;;;4970725;28;20038;-76